Time;durP1;ratioP1;P1;durP2;ratioP2;P2;SDS_P1;SDS_P2;PMS_P1;PMS_P2;Temp;Humidity;BMP_temperature;BMP_pressure;BME280_temperature;BME280_humidity;BME280_pressure;Samples;Min_cycle;Max_cycle;Signal;HPM_P1;HPM_P2
2022/07/24 00:00:43;;;;;;;6.38;5.75;;;25.00;86.30;;;;;;5066587;28;20036;-70
2022/07/24 00:03:09;;;;;;;6.18;5.68;;;24.90;86.20;;;;;;5061567;28;20055;-70
2022/07/24 00:05:35;;;;;;;6.35;5.75;;;25.00;85.70;;;;;;5071435;28;20024;-70
2022/07/24 00:08:00;;;;;;;7.20;5.55;;;25.00;86.20;;;;;;5047843;28;20064;-70
2022/07/24 00:10:26;;;;;;;6.10;5.53;;;25.00;85.10;;;;;;5070454;28;20752;-69
2022/07/24 00:12:52;;;;;;;6.45;5.93;;;25.10;84.90;;;;;;5050280;28;20778;-69
2022/07/24 00:15:18;;;;;;;6.28;5.68;;;25.00;84.50;;;;;;5066607;28;20052;-74
2022/07/24 00:17:43;;;;;;;6.40;5.80;;;25.00;84.30;;;;;;5062992;28;20028;-69
2022/07/24 00:20:10;;;;;;;6.32;5.70;;;25.10;84.50;;;;;;5064711;28;20028;-69
2022/07/24 00:22:35;;;;;;;11.45;5.60;;;25.10;84.10;;;;;;5062179;28;20028;-69
2022/07/24 00:25:01;;;;;;;6.13;5.55;;;25.20;83.50;;;;;;5071760;28;20035;-69
2022/07/24 00:27:27;;;;;;;5.28;4.65;;;25.30;83.10;;;;;;5070953;28;20044;-69
2022/07/24 00:29:52;;;;;;;5.80;5.22;;;25.40;82.70;;;;;;5076039;28;20035;-68
2022/07/24 00:32:18;;;;;;;5.68;4.93;;;25.50;82.70;;;;;;5064253;28;20052;-68
2022/07/24 00:34:44;;;;;;;12.50;5.28;;;25.60;83.60;;;;;;5070833;28;20062;-68
2022/07/24 00:37:09;;;;;;;9.30;5.10;;;25.60;83.50;;;;;;5067571;28;20024;-69
2022/07/24 00:39:35;;;;;;;6.93;5.15;;;25.60;83.10;;;;;;5069525;28;20024;-68
2022/07/24 00:42:01;;;;;;;6.57;5.97;;;25.60;84.10;;;;;;5073675;28;20686;-68
2022/07/24 00:44:26;;;;;;;6.20;5.60;;;25.60;84.80;;;;;;5055035;28;20043;-68
2022/07/24 00:46:52;;;;;;;6.25;5.75;;;25.40;85.00;;;;;;5071728;28;20048;-68
2022/07/24 00:49:19;;;;;;;6.35;5.75;;;25.30;85.00;;;;;;5067507;28;20028;-68
2022/07/24 00:51:47;;;;;;;5.50;5.10;;;25.40;84.80;;;;;;5064216;28;20047;-68
2022/07/24 00:54:14;;;;;;;5.53;5.05;;;25.40;85.00;;;;;;5029594;28;20024;-68
2022/07/24 00:56:45;;;;;;;6.20;5.53;;;25.40;84.80;;;;;;5060067;28;20024;-68
2022/07/24 00:59:11;;;;;;;5.95;5.35;;;25.40;84.50;;;;;;5072010;28;20028;-68
2022/07/24 01:01:37;;;;;;;5.35;4.85;;;25.50;84.60;;;;;;5061992;28;20032;-69
2022/07/24 01:04:03;;;;;;;22.73;5.65;;;25.50;85.00;;;;;;5055005;28;20047;-69
2022/07/24 01:06:29;;;;;;;6.93;5.78;;;25.50;85.00;;;;;;5066044;28;20556;-69
2022/07/24 01:08:54;;;;;;;6.13;5.60;;;25.50;85.30;;;;;;5070482;28;23254;-69
2022/07/24 01:11:21;;;;;;;5.63;5.13;;;25.60;85.50;;;;;;5075032;28;20040;-68
2022/07/24 01:13:49;;;;;;;6.07;5.53;;;25.60;85.40;;;;;;5072301;28;20126;-68
2022/07/24 01:16:15;;;;;;;5.82;5.40;;;25.60;84.20;;;;;;5064834;28;20086;-68
2022/07/24 01:18:41;;;;;;;5.55;5.10;;;25.70;83.60;;;;;;5069449;28;20036;-68
2022/07/24 01:21:07;;;;;;;5.93;5.43;;;25.80;83.50;;;;;;5069107;28;20113;-68
2022/07/24 01:23:34;;;;;;;6.28;5.38;;;25.70;84.00;;;;;;5070998;28;20098;-68
2022/07/24 01:26:00;;;;;;;6.28;5.68;;;25.60;84.10;;;;;;5051814;28;20032;-68
2022/07/24 01:28:26;;;;;;;8.23;5.15;;;25.60;84.20;;;;;;5074079;28;20554;-69
2022/07/24 01:30:52;;;;;;;8.63;5.47;;;25.60;84.10;;;;;;5056319;28;21218;-68
2022/07/24 01:33:18;;;;;;;5.88;5.40;;;25.60;84.10;;;;;;5075246;28;20040;-68
2022/07/24 01:35:44;;;;;;;11.05;5.97;;;25.60;84.50;;;;;;5072197;28;20572;-67
2022/07/24 01:38:12;;;;;;;6.90;5.93;;;25.60;84.00;;;;;;5074623;28;20039;-68
2022/07/24 01:40:39;;;;;;;7.53;5.93;;;25.60;84.40;;;;;;5078277;28;20478;-68
2022/07/24 01:43:05;;;;;;;7.72;6.10;;;25.60;84.80;;;;;;5075913;28;20122;-68
2022/07/24 01:45:31;;;;;;;6.65;5.90;;;25.60;85.10;;;;;;5071342;28;20040;-68
2022/07/24 01:47:57;;;;;;;6.40;5.70;;;25.60;85.20;;;;;;5074091;28;20078;-68
2022/07/24 01:50:23;;;;;;;6.15;5.63;;;25.60;85.50;;;;;;5072329;28;20385;-68
2022/07/24 01:52:48;;;;;;;10.95;5.55;;;25.60;85.70;;;;;;5071998;28;20024;-75
2022/07/24 01:55:14;;;;;;;10.20;6.32;;;25.60;85.70;;;;;;5069563;28;20058;-75
2022/07/24 01:57:40;;;;;;;7.78;5.82;;;25.60;85.90;;;;;;5082621;28;20020;-75
2022/07/24 02:00:12;;;;;;;6.47;5.68;;;25.60;85.70;;;;;;5080372;28;20028;-75
2022/07/24 02:02:39;;;;;;;7.35;6.03;;;25.60;85.80;;;;;;5068948;28;20645;-75
2022/07/24 02:05:05;;;;;;;6.78;5.80;;;25.60;86.00;;;;;;5071655;28;20036;-75
2022/07/24 02:07:31;;;;;;;6.00;5.50;;;25.60;86.10;;;;;;5070697;28;20047;-75
2022/07/24 02:09:57;;;;;;;6.13;5.10;;;25.60;85.90;;;;;;5068470;28;20032;-68
2022/07/24 02:12:22;;;;;;;8.55;5.78;;;25.60;85.70;;;;;;5076363;28;20105;-68
2022/07/24 02:14:48;;;;;;;6.68;5.50;;;25.70;85.70;;;;;;5070405;28;20052;-68
2022/07/24 02:17:14;;;;;;;6.45;5.85;;;25.70;85.60;;;;;;5074087;28;20051;-68
2022/07/24 02:19:39;;;;;;;6.55;5.80;;;25.70;85.50;;;;;;5065093;28;20508;-68
2022/07/24 02:22:05;;;;;;;6.78;5.75;;;25.70;85.60;;;;;;5070348;28;20452;-68
2022/07/24 02:24:30;;;;;;;10.40;5.95;;;25.80;86.20;;;;;;5072240;28;20055;-68
2022/07/24 02:26:56;;;;;;;7.07;5.72;;;25.80;87.00;;;;;;5066636;28;20096;-68
2022/07/24 02:29:22;;;;;;;14.77;6.20;;;25.80;87.40;;;;;;5069682;28;20584;-68
2022/07/24 02:31:47;;;;;;;11.63;5.97;;;25.70;87.80;;;;;;5070210;28;20085;-68
2022/07/24 02:34:13;;;;;;;8.38;5.65;;;25.60;87.70;;;;;;5075861;28;20028;-68
2022/07/24 02:36:38;;;;;;;21.38;6.90;;;25.60;87.50;;;;;;5071926;28;20027;-68
2022/07/24 02:39:04;;;;;;;17.17;6.03;;;25.50;87.40;;;;;;5070795;28;20374;-69
2022/07/24 02:41:30;;;;;;;6.85;5.47;;;25.50;87.20;;;;;;5069118;28;20028;-68
2022/07/24 02:43:55;;;;;;;6.07;5.50;;;25.50;87.00;;;;;;5074830;28;20070;-68
2022/07/24 02:46:21;;;;;;;5.70;5.20;;;25.50;87.20;;;;;;5072807;28;20078;-68
2022/07/24 02:48:47;;;;;;;7.00;5.50;;;25.40;87.20;;;;;;5070589;28;20477;-68
2022/07/24 02:51:12;;;;;;;8.65;5.68;;;25.40;87.60;;;;;;5063802;28;20024;-68
2022/07/24 02:53:38;;;;;;;13.25;5.72;;;25.40;88.70;;;;;;5060682;28;20028;-68
2022/07/24 02:56:04;;;;;;;13.23;5.68;;;25.50;88.40;;;;;;5064019;28;20648;-68
2022/07/24 02:58:30;;;;;;;8.15;5.82;;;25.60;88.00;;;;;;5068769;28;20032;-68
2022/07/24 03:00:56;;;;;;;38.17;8.27;;;25.60;87.90;;;;;;5065681;28;20444;-68
2022/07/24 03:03:22;;;;;;;17.40;6.65;;;25.60;88.00;;;;;;5066633;28;20052;-68
2022/07/24 03:05:48;;;;;;;11.38;6.20;;;25.60;88.50;;;;;;5069350;28;21978;-68
2022/07/24 03:08:13;;;;;;;6.07;5.43;;;25.60;88.70;;;;;;5068874;28;20039;-68
2022/07/24 03:10:39;;;;;;;19.30;6.88;;;25.60;88.80;;;;;;5071804;28;20028;-68
2022/07/24 03:13:05;;;;;;;8.00;5.75;;;25.60;88.90;;;;;;5069968;28;20052;-68
2022/07/24 03:15:31;;;;;;;7.53;5.45;;;25.60;88.30;;;;;;5068690;28;20028;-68
2022/07/24 03:17:57;;;;;;;9.45;5.65;;;25.60;88.50;;;;;;5068398;28;20039;-68
2022/07/24 03:20:24;;;;;;;6.15;5.43;;;25.60;88.30;;;;;;5065638;28;20028;-68
2022/07/24 03:22:50;;;;;;;7.60;6.35;;;25.50;88.50;;;;;;5070583;28;20040;-69
2022/07/24 03:25:17;;;;;;;9.00;6.18;;;25.50;89.20;;;;;;5058394;28;20062;-68
2022/07/24 03:27:43;;;;;;;6.25;5.72;;;25.50;89.50;;;;;;5072909;28;20040;-68
2022/07/24 03:30:09;;;;;;;7.75;5.72;;;25.40;88.80;;;;;;5069706;28;20020;-68
2022/07/24 03:32:35;;;;;;;7.75;5.85;;;25.50;89.00;;;;;;5071142;28;20063;-68
2022/07/24 03:35:01;;;;;;;9.50;6.28;;;25.50;89.10;;;;;;5068240;28;20028;-68
2022/07/24 03:37:27;;;;;;;6.80;5.72;;;25.40;89.40;;;;;;5072590;28;20648;-69
2022/07/24 03:39:54;;;;;;;7.90;6.45;;;25.40;90.00;;;;;;5074218;28;20024;-68
2022/07/24 03:42:19;;;;;;;9.63;5.93;;;25.30;90.00;;;;;;5070975;28;20477;-68
2022/07/24 03:44:45;;;;;;;6.95;5.90;;;25.30;90.10;;;;;;5071210;28;20059;-68
2022/07/24 03:47:11;;;;;;;10.18;5.68;;;25.30;90.00;;;;;;5073779;28;20056;-68
2022/07/24 03:49:36;;;;;;;6.30;5.55;;;25.30;90.00;;;;;;5072411;28;20016;-68
2022/07/24 03:52:03;;;;;;;5.80;5.32;;;25.30;90.50;;;;;;5068708;28;20021;-68
2022/07/24 03:54:28;;;;;;;6.50;5.90;;;25.30;90.60;;;;;;5072919;28;20158;-68
2022/07/24 03:56:54;;;;;;;21.52;6.25;;;25.30;90.90;;;;;;5078257;28;20122;-67
2022/07/24 03:59:19;;;;;;;6.10;5.50;;;25.30;91.10;;;;;;5070851;28;20025;-68
2022/07/24 04:01:45;;;;;;;7.85;5.63;;;25.30;90.10;;;;;;5063605;28;20020;-68
2022/07/24 04:04:11;;;;;;;6.22;5.63;;;25.20;90.40;;;;;;5071439;28;20044;-68
2022/07/24 04:06:36;;;;;;;7.18;5.53;;;25.20;90.20;;;;;;5074496;28;20036;-68
2022/07/24 04:09:04;;;;;;;6.80;6.10;;;25.20;90.20;;;;;;5065486;28;20032;-67
2022/07/24 04:11:29;;;;;;;5.90;5.40;;;25.30;90.20;;;;;;5066873;28;20039;-68
2022/07/24 04:13:55;;;;;;;8.10;6.38;;;25.20;90.20;;;;;;5057879;28;20440;-68
2022/07/24 04:16:21;;;;;;;9.48;6.00;;;25.20;90.50;;;;;;5069006;28;20097;-68
2022/07/24 04:18:47;;;;;;;22.30;5.93;;;25.30;90.60;;;;;;5075205;28;20945;-68
2022/07/24 04:21:12;;;;;;;8.60;5.25;;;25.30;90.70;;;;;;5068836;28;20022;-68
2022/07/24 04:23:38;;;;;;;10.68;6.45;;;25.20;90.50;;;;;;5070358;28;20051;-68
2022/07/24 04:26:04;;;;;;;7.43;5.88;;;25.20;90.50;;;;;;5068316;28;20086;-68
2022/07/24 04:28:30;;;;;;;6.15;5.55;;;25.20;90.40;;;;;;5071349;28;20100;-67
2022/07/24 04:30:56;;;;;;;7.10;5.78;;;25.20;90.30;;;;;;5068784;28;20479;-68
2022/07/24 04:33:22;;;;;;;7.75;6.07;;;25.20;90.40;;;;;;5075770;28;20093;-67
2022/07/24 04:35:47;;;;;;;8.90;6.18;;;25.20;90.30;;;;;;5071521;28;20028;-67
2022/07/24 04:38:13;;;;;;;9.88;5.75;;;25.20;90.30;;;;;;5071368;28;20085;-68
2022/07/24 04:40:39;;;;;;;6.95;6.30;;;25.20;90.20;;;;;;5069632;28;20437;-66
2022/07/24 04:43:05;;;;;;;7.03;6.32;;;25.20;89.90;;;;;;5073892;28;20028;-67
2022/07/24 04:45:31;;;;;;;6.55;5.95;;;25.30;90.10;;;;;;5054151;28;20036;-68
2022/07/24 04:47:57;;;;;;;8.38;6.13;;;25.30;90.30;;;;;;5071027;28;20477;-67
2022/07/24 04:50:22;;;;;;;7.70;7.00;;;25.30;90.10;;;;;;5067642;28;20032;-67
2022/07/24 04:52:48;;;;;;;7.22;6.30;;;25.30;90.30;;;;;;5069094;28;20089;-67
2022/07/24 04:55:13;;;;;;;7.07;6.45;;;25.30;90.00;;;;;;5072889;28;20899;-67
2022/07/24 04:57:39;;;;;;;7.85;7.10;;;25.40;90.00;;;;;;5073603;28;20028;-67
2022/07/24 05:00:08;;;;;;;9.65;6.95;;;25.40;90.10;;;;;;5072349;28;20057;-68
2022/07/24 05:02:34;;;;;;;6.82;6.22;;;25.40;89.60;;;;;;5069011;28;20030;-67
2022/07/24 05:04:59;;;;;;;6.82;6.20;;;25.50;89.10;;;;;;5069044;28;20028;-68
2022/07/24 05:07:25;;;;;;;6.82;6.22;;;25.60;88.80;;;;;;5075390;28;20051;-67
2022/07/24 05:09:51;;;;;;;7.28;6.63;;;25.70;87.70;;;;;;5075298;28;20031;-67
2022/07/24 05:12:16;;;;;;;11.02;7.18;;;25.80;87.50;;;;;;5066347;28;20107;-68
2022/07/24 05:14:42;;;;;;;11.88;6.10;;;25.80;88.20;;;;;;5071385;28;20048;-67
2022/07/24 05:17:07;;;;;;;7.25;6.57;;;25.80;88.10;;;;;;5067424;28;20036;-68
2022/07/24 05:19:33;;;;;;;7.03;6.43;;;26.00;87.30;;;;;;5071934;28;20096;-68
2022/07/24 05:21:59;;;;;;;6.93;6.28;;;26.00;87.60;;;;;;5071956;28;20042;-68
2022/07/24 05:24:27;;;;;;;7.03;6.32;;;25.90;87.00;;;;;;5071338;28;20021;-67
2022/07/24 05:26:53;;;;;;;8.30;6.80;;;25.80;89.20;;;;;;5070443;28;20131;-67
2022/07/24 05:29:18;;;;;;;15.55;6.65;;;25.80;89.00;;;;;;5077702;28;20135;-66
2022/07/24 05:31:44;;;;;;;13.95;7.07;;;25.70;90.00;;;;;;5073093;28;20047;-66
2022/07/24 05:34:10;;;;;;;9.10;7.13;;;25.80;90.00;;;;;;5075679;28;21139;-67
2022/07/24 05:36:36;;;;;;;7.53;6.75;;;25.80;89.40;;;;;;5067262;28;20044;-66
2022/07/24 05:39:01;;;;;;;12.15;6.95;;;25.90;89.10;;;;;;5075188;28;20024;-67
2022/07/24 05:41:27;;;;;;;7.20;6.45;;;26.00;89.50;;;;;;5052555;28;20028;-67
2022/07/24 05:43:53;;;;;;;8.70;7.13;;;26.00;89.20;;;;;;5078096;28;20025;-66
2022/07/24 05:46:19;;;;;;;8.10;7.40;;;26.10;88.40;;;;;;5069484;28;20040;-66
2022/07/24 05:48:45;;;;;;;11.52;7.35;;;26.10;87.80;;;;;;5072700;28;20512;-66
2022/07/24 05:51:11;;;;;;;8.43;7.05;;;26.10;88.60;;;;;;5072499;28;20048;-66
2022/07/24 05:53:37;;;;;;;14.40;7.82;;;26.20;87.70;;;;;;5075675;28;20024;-66
2022/07/24 05:56:03;;;;;;;9.73;6.57;;;26.20;88.80;;;;;;5068575;28;20526;-66
2022/07/24 05:58:29;;;;;;;9.38;7.43;;;26.20;89.50;;;;;;5074554;28;20031;-66
2022/07/24 06:00:55;;;;;;;14.32;7.20;;;26.20;87.60;;;;;;5077270;28;20473;-66
2022/07/24 06:03:20;;;;;;;8.50;7.65;;;26.20;86.20;;;;;;5073419;28;20047;-66
2022/07/24 06:05:46;;;;;;;8.90;7.10;;;26.20;85.80;;;;;;5069794;28;20216;-66
2022/07/24 06:08:11;;;;;;;7.53;6.93;;;26.20;87.10;;;;;;5076141;28;20043;-66
2022/07/24 06:10:37;;;;;;;7.78;6.88;;;26.30;86.90;;;;;;5076541;28;20671;-66
2022/07/24 06:13:03;;;;;;;7.80;7.00;;;26.20;86.00;;;;;;5078461;28;20081;-66
2022/07/24 06:15:29;;;;;;;8.05;7.22;;;26.20;85.00;;;;;;5073761;28;20432;-66
2022/07/24 06:17:55;;;;;;;7.20;6.50;;;26.20;87.10;;;;;;5072763;28;20016;-66
2022/07/24 06:20:20;;;;;;;28.65;7.70;;;26.20;86.40;;;;;;5065092;28;20062;-67
2022/07/24 06:22:46;;;;;;;9.07;7.93;;;26.20;86.50;;;;;;5076041;28;20046;-66
2022/07/24 06:25:12;;;;;;;24.25;7.28;;;26.20;85.10;;;;;;5073162;28;20111;-66
2022/07/24 06:27:47;;;;;;;8.18;7.30;;;26.00;87.60;;;;;;5076475;28;20048;-66
2022/07/24 06:30:27;;;;;;;7.80;7.10;;;26.10;86.00;;;;;;5073620;28;20021;-66
2022/07/24 06:32:54;;;;;;;7.68;6.90;;;26.20;85.70;;;;;;5058957;28;20043;-66
2022/07/24 06:35:20;;;;;;;8.57;7.78;;;26.40;85.00;;;;;;5074325;28;20109;-71
2022/07/24 06:37:46;;;;;;;9.98;7.28;;;26.70;85.60;;;;;;5071045;28;20728;-71
2022/07/24 06:40:12;;;;;;;9.35;7.13;;;26.80;85.30;;;;;;5077044;28;20491;-71
2022/07/24 06:42:38;;;;;;;7.20;6.60;;;27.00;85.00;;;;;;5074194;28;20024;-72
2022/07/24 06:45:04;;;;;;;8.13;7.47;;;27.00;81.70;;;;;;5071062;28;20037;-73
2022/07/24 06:47:30;;;;;;;8.07;7.28;;;27.00;82.50;;;;;;5072353;28;20135;-72
2022/07/24 06:49:56;;;;;;;7.65;6.90;;;27.00;82.70;;;;;;5067895;28;20099;-73
2022/07/24 06:52:22;;;;;;;7.43;6.72;;;27.00;80.80;;;;;;5072440;28;20039;-72
2022/07/24 06:54:48;;;;;;;7.53;6.82;;;27.10;81.20;;;;;;5065772;28;20492;-75
2022/07/24 06:57:14;;;;;;;7.80;7.07;;;27.10;81.60;;;;;;5071312;28;20028;-77
2022/07/24 06:59:40;;;;;;;9.38;7.63;;;27.10;81.40;;;;;;5055852;28;20024;-74
2022/07/24 07:02:06;;;;;;;7.72;7.03;;;27.10;81.40;;;;;;5071878;28;20150;-76
2022/07/24 07:04:32;;;;;;;8.30;7.45;;;27.20;82.40;;;;;;5074696;28;20443;-75
2022/07/24 07:06:57;;;;;;;7.53;6.95;;;27.20;82.00;;;;;;5073016;28;20052;-73
2022/07/24 07:09:23;;;;;;;8.15;7.45;;;27.30;81.90;;;;;;5068498;28;20033;-72
2022/07/24 07:11:49;;;;;;;7.72;7.13;;;27.40;80.50;;;;;;5077400;28;20032;-72
2022/07/24 07:14:14;;;;;;;12.98;6.82;;;27.40;81.10;;;;;;5071248;28;20031;-72
2022/07/24 07:16:40;;;;;;;8.73;7.55;;;27.60;82.00;;;;;;5069808;28;20115;-71
2022/07/24 07:19:06;;;;;;;7.85;7.07;;;27.70;80.60;;;;;;5071366;28;20394;-73
2022/07/24 07:21:31;;;;;;;8.07;7.10;;;27.80;80.10;;;;;;5077928;28;20063;-68
2022/07/24 07:23:57;;;;;;;11.93;6.95;;;27.90;79.00;;;;;;5070366;28;20467;-67
2022/07/24 07:26:23;;;;;;;7.82;6.95;;;27.90;78.30;;;;;;5076080;28;20023;-72
2022/07/24 07:28:48;;;;;;;7.35;6.65;;;28.10;76.80;;;;;;5072171;28;20497;-72
2022/07/24 07:31:14;;;;;;;9.30;6.32;;;28.20;75.90;;;;;;5067778;28;20036;-72
2022/07/24 07:33:40;;;;;;;23.92;6.20;;;28.30;74.50;;;;;;5074524;28;20036;-72
2022/07/24 07:36:06;;;;;;;18.23;7.05;;;28.40;72.60;;;;;;5054874;28;20362;-72
2022/07/24 07:38:32;;;;;;;8.35;6.82;;;28.40;70.90;;;;;;5073877;28;20032;-73
2022/07/24 07:40:58;;;;;;;52.40;15.23;;;28.30;68.30;;;;;;5074238;28;20110;-72
2022/07/24 07:43:23;;;;;;;9.25;6.32;;;28.40;69.60;;;;;;5074382;28;20647;-71
2022/07/24 07:45:49;;;;;;;6.35;5.75;;;28.50;68.40;;;;;;5071142;28;20592;-71
2022/07/24 07:48:16;;;;;;;61.42;12.55;;;28.50;66.60;;;;;;5074488;28;20130;-74
2022/07/24 07:50:41;;;;;;;18.75;6.40;;;28.50;67.10;;;;;;5068366;28;20093;-73
2022/07/24 07:53:08;;;;;;;13.70;6.13;;;28.50;66.40;;;;;;5071767;28;20028;-74
2022/07/24 07:55:33;;;;;;;6.72;5.53;;;28.60;67.80;;;;;;5071051;28;20021;-72
2022/07/24 07:58:00;;;;;;;12.25;5.57;;;28.70;66.40;;;;;;5070611;28;20032;-72
2022/07/24 08:00:25;;;;;;;11.93;5.60;;;28.80;65.50;;;;;;5074916;28;20111;-72
2022/07/24 08:02:51;;;;;;;10.85;5.75;;;28.90;64.30;;;;;;5074816;28;20105;-70
2022/07/24 08:05:17;;;;;;;5.75;4.97;;;28.80;64.20;;;;;;5072286;28;20024;-74
2022/07/24 08:07:42;;;;;;;6.47;5.45;;;28.90;63.90;;;;;;5070288;28;20450;-72
2022/07/24 08:10:08;;;;;;;19.55;5.43;;;28.80;64.70;;;;;;5070078;28;20036;-71
2022/07/24 08:12:34;;;;;;;8.13;5.25;;;28.90;63.90;;;;;;5059382;28;20047;-78
2022/07/24 08:15:00;;;;;;;12.55;5.95;;;28.80;63.60;;;;;;5074709;28;20012;-78
2022/07/24 08:17:25;;;;;;;13.13;6.13;;;28.80;64.20;;;;;;5075814;28;20389;-74
2022/07/24 08:19:51;;;;;;;5.82;5.32;;;29.00;65.80;;;;;;5070570;28;20357;-75
2022/07/24 08:22:17;;;;;;;30.45;6.93;;;29.20;61.20;;;;;;5075221;28;20090;-69
2022/07/24 08:24:42;;;;;;;9.85;6.00;;;29.10;62.90;;;;;;5072003;28;20114;-68
2022/07/24 08:27:08;;;;;;;8.93;6.40;;;29.10;62.20;;;;;;5071898;28;20054;-68
2022/07/24 08:29:33;;;;;;;30.42;7.07;;;29.10;61.30;;;;;;5071158;28;20070;-68
2022/07/24 08:31:59;;;;;;;6.57;5.88;;;29.00;61.80;;;;;;5075754;28;20077;-67
2022/07/24 08:34:25;;;;;;;10.13;6.60;;;29.00;63.80;;;;;;5054905;28;20086;-67
2022/07/24 08:36:51;;;;;;;9.35;7.20;;;29.10;64.10;;;;;;5076013;28;20028;-67
2022/07/24 08:39:17;;;;;;;11.05;6.43;;;29.20;64.20;;;;;;5071381;28;20537;-68
2022/07/24 08:41:45;;;;;;;11.00;6.70;;;29.30;65.40;;;;;;5064643;28;20032;-68
2022/07/24 08:44:11;;;;;;;13.13;6.85;;;29.40;63.70;;;;;;5068838;28;20022;-67
2022/07/24 08:46:41;;;;;;;6.65;6.05;;;29.50;64.30;;;;;;5068192;28;20042;-69
2022/07/24 08:49:11;;;;;;;13.93;7.57;;;29.50;64.30;;;;;;5052909;28;20508;-67
2022/07/24 08:51:39;;;;;;;7.28;6.68;;;29.50;64.60;;;;;;5068064;28;20036;-67
2022/07/24 08:54:06;;;;;;;8.27;6.55;;;29.60;63.70;;;;;;5074427;28;20032;-68
2022/07/24 08:56:33;;;;;;;7.10;6.40;;;29.60;62.90;;;;;;5072132;28;20144;-68
2022/07/24 08:58:59;;;;;;;10.07;6.43;;;29.60;63.20;;;;;;5071275;28;20540;-68
2022/07/24 09:01:25;;;;;;;24.73;8.63;;;29.60;62.00;;;;;;5076675;28;20496;-68
2022/07/24 09:03:51;;;;;;;12.55;6.47;;;29.60;64.00;;;;;;5070021;28;20112;-69
2022/07/24 09:06:17;;;;;;;10.85;6.00;;;29.60;63.50;;;;;;5074753;28;20888;-69
2022/07/24 09:08:56;;;;;;;7.22;6.00;;;29.70;61.90;;;;;;5072794;28;20024;-69
2022/07/24 09:11:22;;;;;;;7.47;6.55;;;29.70;61.10;;;;;;5070710;28;20493;-68
2022/07/24 09:16:36;;;;;;;12.45;6.63;;;29.70;61.80;;;;;;5072661;28;20415;-69
2022/07/24 09:19:07;;;;;;;6.65;6.05;;;29.80;61.50;;;;;;5074614;28;20036;-69
2022/07/24 09:21:38;;;;;;;8.05;5.65;;;29.80;61.40;;;;;;5072170;28;20740;-69
2022/07/24 09:24:25;;;;;;;5.72;5.20;;;29.80;60.70;;;;;;5070505;28;20405;-69
2022/07/24 09:26:55;;;;;;;5.78;5.25;;;29.80;59.10;;;;;;5072838;28;20032;-68
2022/07/24 09:29:23;;;;;;;7.63;5.47;;;29.80;56.70;;;;;;5074738;28;20047;-69
2022/07/24 09:32:00;;;;;;;6.07;5.57;;;29.60;57.50;;;;;;5076739;28;20025;-69
2022/07/24 09:34:29;;;;;;;15.15;5.07;;;29.50;58.70;;;;;;5074489;28;20032;-70
2022/07/24 09:37:06;;;;;;;5.65;5.15;;;29.50;59.60;;;;;;5055894;28;20020;-69
2022/07/24 09:39:35;;;;;;;19.73;4.95;;;29.60;58.30;;;;;;5071576;28;20507;-70
2022/07/24 09:42:03;;;;;;;8.02;4.72;;;29.60;58.50;;;;;;5072183;28;20042;-67
2022/07/24 09:44:31;;;;;;;4.88;4.47;;;29.70;56.20;;;;;;5076663;28;20039;-67
2022/07/24 09:47:02;;;;;;;3.72;3.35;;;29.70;56.00;;;;;;5073567;28;20675;-67
2022/07/24 09:49:28;;;;;;;8.57;4.70;;;29.70;52.30;;;;;;5066222;28;20512;-67
2022/07/24 09:52:12;;;;;;;9.10;4.80;;;29.70;54.60;;;;;;5067955;28;20036;-66
2022/07/24 09:54:45;;;;;;;5.30;4.78;;;29.80;56.50;;;;;;5070528;28;20035;-67
2022/07/24 09:57:24;;;;;;;5.18;4.68;;;29.90;55.70;;;;;;5068494;28;20044;-67
2022/07/24 09:59:54;;;;;;;9.15;4.90;;;30.10;55.10;;;;;;5056591;28;20112;-66
2022/07/24 10:02:22;;;;;;;8.85;4.97;;;30.30;56.40;;;;;;5075957;28;20024;-66
2022/07/24 10:04:49;;;;;;;5.15;4.65;;;30.30;53.80;;;;;;5073132;28;20556;-66
2022/07/24 10:07:18;;;;;;;8.07;4.88;;;30.10;54.80;;;;;;5070300;28;20388;-65
2022/07/24 10:09:57;;;;;;;9.70;4.70;;;30.10;55.00;;;;;;5073950;28;20555;-66
2022/07/24 10:12:29;;;;;;;8.43;4.93;;;30.20;53.50;;;;;;5072011;28;20036;-66
2022/07/24 10:14:56;;;;;;;;;;;30.30;53.20;;;;;;5070561;28;20060;-66
2022/07/24 10:17:29;;;;;;;7.00;4.47;;;30.30;50.20;;;;;;5073292;28;20280;-67
2022/07/24 10:20:02;;;;;;;5.05;4.32;;;30.20;50.90;;;;;;5073639;28;20035;-67
2022/07/24 10:22:38;;;;;;;38.30;5.60;;;30.10;51.60;;;;;;5079685;28;20620;-65
2022/07/24 10:25:06;;;;;;;12.13;4.75;;;30.00;53.30;;;;;;5079359;28;20070;-66
2022/07/24 10:27:35;;;;;;;4.28;3.85;;;30.10;53.80;;;;;;5070488;28;20032;-66
2022/07/24 10:30:07;;;;;;;6.35;4.20;;;30.40;51.80;;;;;;5060189;28;20071;-66
2022/07/24 10:32:34;;;;;;;4.93;3.58;;;30.40;48.10;;;;;;5074043;28;20080;-66
2022/07/24 10:35:14;;;;;;;3.90;3.60;;;30.30;48.70;;;;;;5071603;28;20020;-66
2022/07/24 10:37:51;;;;;;;6.63;3.75;;;30.20;48.90;;;;;;5072676;28;20030;-66
2022/07/24 10:40:29;;;;;;;12.75;4.45;;;30.30;50.70;;;;;;5065570;28;20016;-65
2022/07/24 10:43:08;;;;;;;8.15;4.28;;;30.40;50.30;;;;;;5075368;28;20034;-64
2022/07/24 10:45:56;;;;;;;4.88;3.70;;;30.50;50.00;;;;;;5071454;28;20095;-72
2022/07/24 10:48:23;;;;;;;8.68;3.90;;;30.40;48.60;;;;;;5058510;28;20614;-75
2022/07/24 10:51:07;;;;;;;8.98;3.95;;;30.40;48.90;;;;;;5054364;28;20020;-76
2022/07/24 10:53:54;;;;;;;4.38;3.83;;;30.50;48.70;;;;;;5073038;28;20370;-78
2022/07/24 10:56:38;;;;;;;4.10;3.70;;;30.60;47.90;;;;;;5073413;28;20108;-75
2022/07/24 10:59:09;;;;;;;3.53;3.22;;;30.50;46.40;;;;;;5070671;28;20504;-77
2022/07/24 11:01:44;;;;;;;4.13;3.75;;;30.40;46.30;;;;;;5053108;28;20408;-75
2022/07/24 11:04:19;;;;;;;6.80;4.72;;;30.40;47.80;;;;;;5061481;28;20039;-76
2022/07/24 11:06:50;;;;;;;8.52;3.78;;;30.60;48.60;;;;;;5062810;28;20123;-79
2022/07/24 11:09:18;;;;;;;4.13;3.83;;;30.70;46.40;;;;;;5070147;28;20020;-80
2022/07/24 11:11:53;;;;;;;4.45;4.03;;;30.60;47.70;;;;;;5074198;28;20032;-70
2022/07/24 11:14:23;;;;;;;3.90;3.60;;;30.50;47.30;;;;;;5075002;28;20035;-71
2022/07/24 11:16:49;;;;;;;4.07;3.78;;;30.40;47.10;;;;;;5065439;28;20096;-71
2022/07/24 11:19:15;;;;;;;3.90;3.60;;;30.40;48.20;;;;;;5066349;28;20043;-71
2022/07/24 11:21:43;;;;;;;4.30;3.92;;;30.50;48.10;;;;;;5061971;28;20036;-70
2022/07/24 11:24:21;;;;;;;3.83;3.53;;;30.70;47.50;;;;;;5068642;28;20032;-71
2022/07/24 11:26:53;;;;;;;4.15;3.75;;;30.60;45.10;;;;;;5066997;28;20408;-70
2022/07/24 11:29:26;;;;;;;4.57;3.67;;;30.70;48.10;;;;;;5069151;28;20028;-71
2022/07/24 11:31:59;;;;;;;4.70;3.60;;;30.80;47.00;;;;;;5071423;28;20508;-70
2022/07/24 11:34:27;;;;;;;4.63;4.22;;;30.90;45.50;;;;;;5074576;28;20054;-69
2022/07/24 11:36:54;;;;;;;5.70;4.38;;;30.80;47.00;;;;;;5067193;28;20191;-70
2022/07/24 11:39:36;;;;;;;4.55;4.13;;;30.70;46.90;;;;;;5073735;28;20036;-70
2022/07/24 11:42:06;;;;;;;3.70;3.40;;;30.80;46.50;;;;;;5067373;28;20043;-70
2022/07/24 11:44:40;;;;;;;4.32;4.00;;;30.80;46.40;;;;;;5075613;28;20118;-71
2022/07/24 11:47:13;;;;;;;7.32;4.22;;;30.90;47.10;;;;;;5070078;28;20132;-74
2022/07/24 11:49:44;;;;;;;5.82;3.75;;;30.90;47.50;;;;;;5074487;28;20107;-71
2022/07/24 11:52:15;;;;;;;4.20;3.63;;;30.90;48.20;;;;;;5072599;28;20245;-69
2022/07/24 11:54:42;;;;;;;3.60;3.30;;;30.90;47.20;;;;;;5075017;28;20032;-70
2022/07/24 11:57:18;;;;;;;5.75;3.58;;;30.90;46.70;;;;;;5074300;28;20023;-71
2022/07/24 11:59:46;;;;;;;4.28;3.65;;;30.80;47.30;;;;;;5071677;28;20511;-71
2022/07/24 12:02:12;;;;;;;5.03;3.42;;;30.70;46.90;;;;;;5064681;28;20034;-69
2022/07/24 12:04:39;;;;;;;4.03;3.60;;;30.80;47.70;;;;;;5055880;28;20054;-70
2022/07/24 12:07:07;;;;;;;7.30;3.70;;;31.00;46.80;;;;;;5066605;28;20032;-71
2022/07/24 12:09:42;;;;;;;4.13;3.70;;;31.10;47.00;;;;;;5077458;28;20020;-69
2022/07/24 12:12:26;;;;;;;6.90;4.10;;;31.20;45.70;;;;;;5071339;28;20032;-70
2022/07/24 12:15:04;;;;;;;3.45;3.25;;;31.30;45.40;;;;;;5075816;28;20016;-70
2022/07/24 12:17:30;;;;;;;3.90;3.60;;;31.30;45.20;;;;;;5077825;28;20512;-70
2022/07/24 12:19:58;;;;;;;7.00;3.70;;;31.40;45.50;;;;;;5075433;28;20063;-69
2022/07/24 12:22:26;;;;;;;3.65;3.35;;;31.40;46.60;;;;;;5073480;28;20072;-70
2022/07/24 12:24:54;;;;;;;3.50;3.20;;;31.40;45.10;;;;;;5074226;28;20031;-69
2022/07/24 12:27:38;;;;;;;4.75;3.80;;;31.40;44.50;;;;;;5071874;28;20046;-71
2022/07/24 12:30:29;;;;;;;4.32;3.05;;;31.40;45.40;;;;;;5069973;28;20107;-69
2022/07/24 12:33:01;;;;;;;4.20;3.75;;;31.30;44.00;;;;;;5073573;28;20438;-70
2022/07/24 12:35:30;;;;;;;3.30;3.10;;;31.20;45.90;;;;;;5053445;28;20024;-72
2022/07/24 12:37:56;;;;;;;3.85;3.40;;;31.40;44.40;;;;;;5068924;28;20272;-71
2022/07/24 12:40:30;;;;;;;3.60;3.15;;;31.30;43.60;;;;;;5065078;28;20027;-71
2022/07/24 12:43:06;;;;;;;3.53;3.20;;;31.40;44.00;;;;;;5065107;28;20122;-71
2022/07/24 12:45:32;;;;;;;3.50;3.22;;;31.30;43.20;;;;;;5054141;28;20115;-71
2022/07/24 12:48:21;;;;;;;3.70;2.75;;;31.30;43.20;;;;;;5051696;28;20036;-71
2022/07/24 12:51:09;;;;;;;3.20;2.90;;;31.30;44.60;;;;;;5052016;28;20143;-71